Time;durP1;ratioP1;P1;durP2;ratioP2;P2;SDS_P1;SDS_P2;PMS_P1;PMS_P2;Temp;Humidity;BMP_temperature;BMP_pressure;BME280_temperature;BME280_humidity;BME280_pressure;Samples;Min_cycle;Max_cycle;Signal;HPM_P1;HPM_P2
2022/05/02 00:00:43;;;;;;;22.45;14.90;;;7.80;99.90;;;;;;5036695;28;20040;-76
2022/05/02 00:03:10;;;;;;;21.65;13.88;;;7.80;99.90;;;;;;5039774;28;20044;-75
2022/05/02 00:05:36;;;;;;;20.70;13.48;;;7.70;99.90;;;;;;5038782;28;20649;-75
2022/05/02 00:08:01;;;;;;;23.27;14.50;;;7.70;99.90;;;;;;5038240;28;20037;-75
2022/05/02 00:10:27;;;;;;;20.55;13.60;;;7.70;99.90;;;;;;5036912;28;20033;-75
2022/05/02 00:12:53;;;;;;;20.55;13.70;;;7.70;99.90;;;;;;5037016;28;20025;-75
2022/05/02 00:15:19;;;;;;;22.77;13.77;;;7.70;99.90;;;;;;5039236;28;20398;-76
2022/05/02 00:17:57;;;;;;;24.38;14.40;;;7.70;99.90;;;;;;5037119;28;20075;-76
2022/05/02 00:20:29;;;;;;;22.92;13.52;;;7.70;99.90;;;;;;5040006;28;20087;-75
2022/05/02 00:22:57;;;;;;;23.52;13.65;;;7.70;99.90;;;;;;5042137;28;20672;-76
2022/05/02 00:25:23;;;;;;;25.27;13.73;;;7.70;99.90;;;;;;5040713;28;20044;-76
2022/05/02 00:27:48;;;;;;;25.10;13.88;;;7.70;99.90;;;;;;5036228;28;22301;-76
2022/05/02 00:30:15;;;;;;;20.75;13.55;;;7.70;99.90;;;;;;5035943;28;20038;-76
2022/05/02 00:32:42;;;;;;;27.70;14.15;;;7.80;99.90;;;;;;5042601;28;20051;-76
2022/05/02 00:35:09;;;;;;;23.67;13.68;;;7.80;99.90;;;;;;5039792;28;20175;-76
2022/05/02 00:37:35;;;;;;;22.30;14.02;;;7.80;99.90;;;;;;5043435;28;20108;-76
2022/05/02 00:40:00;;;;;;;19.73;12.90;;;7.70;99.90;;;;;;5042824;28;20144;-76
2022/05/02 00:42:26;;;;;;;20.88;13.60;;;7.70;99.90;;;;;;5043956;28;20033;-76
2022/05/02 00:44:51;;;;;;;25.15;14.10;;;7.70;99.90;;;;;;5044752;28;20025;-76
2022/05/02 00:47:19;;;;;;;22.23;13.82;;;7.60;99.90;;;;;;5044411;28;20021;-76
2022/05/02 00:49:44;;;;;;;20.67;13.20;;;7.60;99.90;;;;;;5045827;28;20079;-76
2022/05/02 00:52:10;;;;;;;22.55;13.05;;;7.60;99.90;;;;;;5042720;28;20048;-76
2022/05/02 00:54:37;;;;;;;19.90;13.43;;;7.60;99.90;;;;;;5046569;28;20168;-76
2022/05/02 00:57:06;;;;;;;21.52;13.68;;;7.60;99.90;;;;;;5029989;28;20040;-76
2022/05/02 00:59:35;;;;;;;21.65;13.93;;;7.50;99.90;;;;;;5041053;28;20028;-76
2022/05/02 01:02:01;;;;;;;22.02;13.20;;;7.50;99.90;;;;;;5044445;28;20385;-76
2022/05/02 01:04:26;;;;;;;20.25;13.27;;;7.40;99.90;;;;;;5046665;28;20033;-76
2022/05/02 01:09:38;;;;;;;22.55;13.88;;;7.40;99.90;;;;;;5041889;28;20063;-76
2022/05/02 01:12:14;;;;;;;21.70;13.90;;;7.30;99.90;;;;;;5044489;28;20472;-76
2022/05/02 01:14:42;;;;;;;22.55;13.68;;;7.20;99.90;;;;;;5045157;28;20056;-76
2022/05/02 01:17:08;;;;;;;21.50;14.18;;;7.10;99.90;;;;;;5046333;28;20031;-76
2022/05/02 01:19:34;;;;;;;27.10;14.63;;;7.10;99.90;;;;;;5045674;28;20459;-76
2022/05/02 01:22:00;;;;;;;25.60;14.73;;;7.00;99.90;;;;;;5044340;28;20029;-76
2022/05/02 01:24:43;;;;;;;20.88;13.50;;;7.00;99.90;;;;;;5044922;28;20036;-75
2022/05/02 01:27:11;;;;;;;25.30;14.25;;;6.90;99.90;;;;;;5044979;28;20047;-76
2022/05/02 01:29:38;;;;;;;21.50;13.93;;;6.80;99.90;;;;;;5044298;28;20124;-76
2022/05/02 01:32:07;;;;;;;26.88;14.85;;;6.80;99.90;;;;;;5042868;28;20033;-76
2022/05/02 01:34:40;;;;;;;21.52;13.77;;;6.70;99.90;;;;;;5044330;28;20025;-76
2022/05/02 01:37:07;;;;;;;21.45;13.32;;;6.70;99.90;;;;;;5043462;28;20362;-75
2022/05/02 01:39:32;;;;;;;20.10;12.70;;;6.60;99.90;;;;;;5045328;28;20423;-77
2022/05/02 01:42:03;;;;;;;22.98;13.23;;;6.50;99.90;;;;;;5042412;28;20099;-76
2022/05/02 01:44:29;;;;;;;20.88;12.90;;;6.50;99.90;;;;;;5043330;28;20033;-76
2022/05/02 01:46:55;;;;;;;23.98;13.52;;;6.50;99.90;;;;;;5044876;28;20075;-76
2022/05/02 01:49:21;;;;;;;19.77;13.38;;;6.50;99.90;;;;;;5043028;28;20034;-76
2022/05/02 01:51:47;;;;;;;22.27;13.77;;;6.50;99.90;;;;;;5042436;28;20025;-76
2022/05/02 01:54:12;;;;;;;18.10;11.52;;;6.50;99.90;;;;;;5045016;28;20534;-76
2022/05/02 01:56:38;;;;;;;18.85;12.25;;;6.40;99.90;;;;;;5041620;28;20086;-76
2022/05/02 01:59:04;;;;;;;18.45;12.50;;;6.40;99.90;;;;;;5044316;28;20037;-76
2022/05/02 02:01:30;;;;;;;21.23;12.63;;;6.40;99.90;;;;;;5045703;28;20053;-76
2022/05/02 02:03:55;;;;;;;20.38;12.00;;;6.40;99.90;;;;;;5044988;28;20564;-76
2022/05/02 02:06:21;;;;;;;23.85;13.68;;;6.40;99.90;;;;;;5044425;28;20025;-76
2022/05/02 02:08:48;;;;;;;19.95;12.75;;;6.40;99.90;;;;;;5036079;28;20071;-76
2022/05/02 02:11:14;;;;;;;19.20;12.48;;;6.30;99.90;;;;;;5038125;28;20037;-76
2022/05/02 02:13:40;;;;;;;20.52;12.82;;;6.30;99.90;;;;;;5039728;28;20048;-76
2022/05/02 02:16:09;;;;;;;19.83;12.07;;;6.20;99.90;;;;;;5040396;28;20737;-76
2022/05/02 02:18:37;;;;;;;22.95;12.93;;;6.30;99.90;;;;;;5040243;28;20110;-76
2022/05/02 02:21:02;;;;;;;19.48;12.68;;;6.30;99.90;;;;;;5039665;28;20474;-76
2022/05/02 02:23:28;;;;;;;20.00;12.82;;;6.30;99.90;;;;;;5039317;28;20122;-76
2022/05/02 02:25:54;;;;;;;22.38;12.95;;;6.30;99.90;;;;;;5039131;28;20064;-76
2022/05/02 02:28:20;;;;;;;20.48;12.88;;;6.30;99.90;;;;;;5037576;28;20159;-76
2022/05/02 02:30:45;;;;;;;17.98;12.15;;;6.20;99.90;;;;;;5039700;28;20029;-75
2022/05/02 02:33:12;;;;;;;19.70;12.32;;;6.20;99.90;;;;;;5039949;28;20427;-76
2022/05/02 02:35:37;;;;;;;18.65;12.50;;;6.20;99.90;;;;;;5040217;28;20041;-76
2022/05/02 02:38:03;;;;;;;22.27;12.82;;;6.20;99.90;;;;;;5039625;28;20397;-76
2022/05/02 02:40:30;;;;;;;21.38;11.82;;;6.10;99.90;;;;;;5044474;28;20134;-76
2022/05/02 02:42:55;;;;;;;17.40;11.32;;;6.10;99.90;;;;;;5037810;28;20032;-76
2022/05/02 02:45:21;;;;;;;20.45;12.43;;;6.10;99.90;;;;;;5039181;28;20033;-75
2022/05/02 02:47:46;;;;;;;19.00;12.30;;;6.00;99.90;;;;;;5039111;28;20029;-76
2022/05/02 02:50:12;;;;;;;21.50;13.00;;;6.00;99.90;;;;;;5041075;28;20029;-76
2022/05/02 02:52:37;;;;;;;20.73;13.07;;;6.00;99.90;;;;;;5039122;28;20036;-76
2022/05/02 02:55:04;;;;;;;18.20;12.48;;;6.00;99.90;;;;;;5038133;28;20147;-75
2022/05/02 02:57:29;;;;;;;17.58;12.35;;;5.90;99.90;;;;;;5036419;28;20546;-76
2022/05/02 02:59:55;;;;;;;19.35;13.18;;;5.90;99.90;;;;;;5038871;28;20037;-76
2022/05/02 03:02:21;;;;;;;23.88;13.05;;;5.90;99.90;;;;;;5039467;28;20043;-75
2022/05/02 03:07:31;;;;;;;24.92;13.43;;;5.70;99.90;;;;;;5039606;28;20051;-76
2022/05/02 03:09:58;;;;;;;19.85;11.88;;;5.70;99.90;;;;;;5024502;28;20033;-76
2022/05/02 03:12:24;;;;;;;18.80;12.32;;;5.70;99.90;;;;;;5042350;28;20017;-76
2022/05/02 03:14:50;;;;;;;18.33;12.45;;;5.60;99.90;;;;;;5042533;28;20060;-76
2022/05/02 03:17:15;;;;;;;22.35;12.60;;;5.60;99.90;;;;;;5038955;28;20049;-75
2022/05/02 03:19:41;;;;;;;22.30;13.63;;;5.50;99.90;;;;;;5044130;28;20395;-75
2022/05/02 03:22:07;;;;;;;19.30;12.40;;;5.50;99.90;;;;;;5038243;28;22499;-75
2022/05/02 03:24:32;;;;;;;23.73;13.80;;;5.50;99.90;;;;;;5038747;28;20035;-75
2022/05/02 03:26:58;;;;;;;21.58;13.05;;;5.50;99.90;;;;;;5037375;28;20033;-75
2022/05/02 03:29:24;;;;;;;21.25;12.73;;;5.50;99.90;;;;;;5038990;28;20179;-75
2022/05/02 03:31:50;;;;;;;23.02;12.48;;;5.50;99.90;;;;;;5038659;28;20493;-75
2022/05/02 03:34:15;;;;;;;20.70;13.30;;;5.50;99.90;;;;;;5037389;28;20033;-75
2022/05/02 03:36:41;;;;;;;18.30;12.85;;;5.50;99.90;;;;;;5036743;28;20036;-75
2022/05/02 03:39:07;;;;;;;22.88;13.70;;;5.40;99.90;;;;;;5037608;28;20044;-74
2022/05/02 03:41:33;;;;;;;20.95;12.55;;;5.40;99.90;;;;;;5040067;28;20044;-75
2022/05/02 03:43:58;;;;;;;22.70;13.52;;;5.40;99.90;;;;;;5039847;28;20663;-75
2022/05/02 03:46:24;;;;;;;23.88;14.65;;;5.40;99.90;;;;;;5037697;28;20032;-75
2022/05/02 03:48:50;;;;;;;20.17;13.05;;;5.30;99.90;;;;;;5037829;28;20115;-75
2022/05/02 03:51:16;;;;;;;18.80;12.07;;;5.40;99.90;;;;;;5037558;28;20033;-76
2022/05/02 03:53:42;;;;;;;21.77;13.57;;;5.30;99.90;;;;;;5037107;28;20480;-75
2022/05/02 03:56:07;;;;;;;22.10;14.20;;;5.30;99.90;;;;;;5037071;28;20045;-75
2022/05/02 03:58:33;;;;;;;20.80;13.45;;;5.40;99.90;;;;;;5035746;28;20380;-75
2022/05/02 04:00:58;;;;;;;22.48;13.55;;;5.40;99.90;;;;;;5039352;28;20839;-76
2022/05/02 04:03:24;;;;;;;23.23;13.32;;;5.30;99.90;;;;;;5036275;28;20106;-75
2022/05/02 04:05:50;;;;;;;20.67;12.63;;;5.40;99.90;;;;;;5038310;28;20171;-75
2022/05/02 04:08:15;;;;;;;20.95;13.32;;;5.30;99.90;;;;;;5036392;28;20048;-75
2022/05/02 04:10:41;;;;;;;21.73;13.20;;;5.30;99.90;;;;;;5036657;28;20086;-75
2022/05/02 04:13:08;;;;;;;20.90;14.18;;;5.30;99.90;;;;;;5040718;28;21641;-75
2022/05/02 04:15:34;;;;;;;18.58;12.70;;;5.30;99.90;;;;;;5041362;28;20443;-75
2022/05/02 04:17:59;;;;;;;19.00;13.50;;;5.30;99.90;;;;;;5045403;28;20072;-75
2022/05/02 04:20:25;;;;;;;22.40;14.23;;;5.30;99.90;;;;;;5044627;28;20025;-75
2022/05/02 04:22:51;;;;;;;22.13;14.18;;;5.30;99.90;;;;;;5044383;28;20024;-75
2022/05/02 04:25:16;;;;;;;23.40;14.65;;;5.30;99.90;;;;;;5044449;28;20084;-75
2022/05/02 04:27:43;;;;;;;20.48;13.00;;;5.30;99.90;;;;;;5042204;28;20035;-75
2022/05/02 04:30:10;;;;;;;25.35;14.35;;;5.20;99.90;;;;;;5044086;28;20037;-75
2022/05/02 04:32:36;;;;;;;22.02;13.77;;;5.20;99.90;;;;;;5044803;28;20056;-75
2022/05/02 04:35:02;;;;;;;26.30;15.30;;;5.20;99.90;;;;;;5046014;28;20095;-75
2022/05/02 04:37:28;;;;;;;22.88;13.80;;;5.20;99.90;;;;;;5044878;28;20032;-75
2022/05/02 04:39:54;;;;;;;25.27;16.15;;;5.20;99.90;;;;;;5042443;28;20041;-75
2022/05/02 04:42:20;;;;;;;25.58;14.88;;;5.20;99.90;;;;;;5034166;28;20021;-75
2022/05/02 04:44:45;;;;;;;27.13;15.15;;;5.30;99.90;;;;;;5038825;28;20071;-75
2022/05/02 04:47:11;;;;;;;22.40;14.60;;;5.30;99.90;;;;;;5040728;28;20025;-74
2022/05/02 04:49:37;;;;;;;20.67;14.00;;;5.40;99.90;;;;;;5038331;28;20041;-75
2022/05/02 04:52:02;;;;;;;29.63;15.60;;;5.40;99.90;;;;;;5037239;28;20021;-75
2022/05/02 04:54:28;;;;;;;23.88;14.88;;;5.50;99.90;;;;;;5034481;28;20112;-74
2022/05/02 04:56:54;;;;;;;26.08;15.43;;;5.50;99.90;;;;;;5025003;28;20451;-76
2022/05/02 04:59:19;;;;;;;23.23;13.63;;;5.50;99.90;;;;;;5044777;28;20477;-75
2022/05/02 05:01:45;;;;;;;23.42;14.68;;;5.60;99.90;;;;;;5043850;28;20025;-77
2022/05/02 05:04:10;;;;;;;21.23;13.32;;;5.70;99.90;;;;;;5028253;28;20067;-75
2022/05/02 05:06:36;;;;;;;27.80;14.63;;;5.80;99.90;;;;;;5045423;28;20301;-76
2022/05/02 05:09:02;;;;;;;21.83;14.25;;;5.80;99.90;;;;;;5045588;28;20059;-76
2022/05/02 05:11:34;;;;;;;22.27;13.93;;;5.90;99.90;;;;;;5046134;28;20031;-77
2022/05/02 05:17:06;;;;;;;24.25;14.40;;;6.10;99.90;;;;;;5025170;28;20053;-77
2022/05/02 05:19:54;;;;;;;21.35;13.77;;;6.10;99.90;;;;;;5026830;28;20025;-77
2022/05/02 05:22:45;;;;;;;22.27;13.98;;;6.20;99.90;;;;;;5027844;28;20471;-77
2022/05/02 05:25:27;;;;;;;21.83;14.07;;;6.20;99.90;;;;;;5023390;28;20033;-76
2022/05/02 05:28:21;;;;;;;21.70;13.75;;;6.30;99.90;;;;;;5023624;28;20062;-76
2022/05/02 05:30:50;;;;;;;18.80;13.60;;;6.40;99.90;;;;;;5022515;28;20045;-77
2022/05/02 05:33:59;;;;;;;20.88;13.50;;;6.50;99.90;;;;;;5019504;28;20041;-77
2022/05/02 05:36:34;;;;;;;20.58;14.45;;;6.60;99.90;;;;;;4989806;28;20572;-77
2022/05/02 05:39:10;;;;;;;23.27;12.75;;;6.90;99.90;;;;;;5024378;28;20481;-77
2022/05/02 05:41:49;;;;;;;19.70;11.85;;;7.20;99.90;;;;;;5023461;28;20151;-77
2022/05/02 05:44:34;;;;;;;19.75;12.77;;;7.50;99.90;;;;;;5024356;28;20029;-76
2022/05/02 05:47:24;;;;;;;18.50;12.80;;;7.80;99.90;;;;;;5018776;28;20033;-76
2022/05/02 05:50:05;;;;;;;19.85;12.98;;;7.90;99.90;;;;;;5023664;28;20033;-76
2022/05/02 05:52:36;;;;;;;21.33;13.18;;;8.00;99.90;;;;;;5025133;28;20022;-73
2022/05/02 05:55:09;;;;;;;20.02;13.30;;;8.10;99.90;;;;;;5022462;28;20124;-73
2022/05/02 05:58:00;;;;;;;;;;;8.20;99.90;;;;;;5023806;28;20109;-73
2022/05/02 06:00:31;;;;;;;20.10;13.27;;;8.30;99.90;;;;;;5022899;28;20266;-73
2022/05/02 06:03:01;;;;;;;27.40;14.63;;;8.40;99.90;;;;;;5022897;28;20034;-74
2022/05/02 06:05:28;;;;;;;17.70;12.75;;;8.50;99.90;;;;;;5024719;28;20025;-73
2022/05/02 06:07:55;;;;;;;22.77;14.27;;;8.60;99.90;;;;;;5020964;28;20037;-74
2022/05/02 06:10:24;;;;;;;21.08;13.55;;;8.70;99.90;;;;;;5027074;28;20033;-74
2022/05/02 06:12:52;;;;;;;20.73;13.95;;;8.80;99.90;;;;;;5029640;28;20025;-76
2022/05/02 06:20:51;;;;;;;26.52;15.43;;;9.10;99.90;;;;;;5051172;28;20044;-75
2022/05/02 06:23:17;;;;;;;21.85;13.45;;;9.20;99.90;;;;;;5047722;28;20029;-75
2022/05/02 06:25:48;;;;;;;22.90;15.10;;;9.30;99.90;;;;;;5051440;28;20017;-75
2022/05/02 06:28:15;;;;;;;19.55;13.23;;;9.40;99.90;;;;;;5048779;28;20036;-75
2022/05/02 06:30:43;;;;;;;23.08;15.07;;;9.50;99.90;;;;;;5044865;28;20563;-75
2022/05/02 06:33:13;;;;;;;28.95;17.00;;;9.60;99.90;;;;;;5050549;28;20053;-76
2022/05/02 06:35:58;;;;;;;23.13;15.00;;;9.70;99.90;;;;;;5049404;28;20400;-75
2022/05/02 06:38:41;;;;;;;22.83;16.15;;;9.80;99.90;;;;;;5048400;28;20045;-74
2022/05/02 06:41:27;;;;;;;17.63;12.82;;;9.90;99.90;;;;;;5050898;28;20067;-75
2022/05/02 06:44:04;;;;;;;21.98;15.07;;;10.10;99.90;;;;;;5051212;28;20037;-75
2022/05/02 06:46:37;;;;;;;20.95;13.15;;;10.20;99.90;;;;;;5049885;28;20397;-76
2022/05/02 06:49:08;;;;;;;22.88;15.00;;;10.30;99.90;;;;;;5048191;28;20112;-75
2022/05/02 06:51:47;;;;;;;22.55;14.02;;;10.40;99.90;;;;;;5050122;28;20052;-76
2022/05/02 06:54:40;;;;;;;18.70;13.68;;;10.60;99.90;;;;;;5048697;28;20029;-76
2022/05/02 06:57:39;;;;;;;22.50;14.15;;;10.70;99.90;;;;;;5051863;28;20104;-76
2022/05/02 07:00:06;;;;;;;24.73;14.10;;;10.90;99.90;;;;;;5048062;28;20025;-77
2022/05/02 07:02:54;;;;;;;19.80;13.38;;;11.00;99.90;;;;;;5050759;28;20056;-77
2022/05/02 07:05:29;;;;;;;21.90;13.73;;;11.10;99.90;;;;;;5050849;28;20112;-76
2022/05/02 07:07:59;;;;;;;18.77;12.77;;;11.30;99.90;;;;;;5051003;28;20116;-77
2022/05/02 07:10:31;;;;;;;18.48;12.55;;;11.40;99.90;;;;;;5051432;28;20095;-77
2022/05/02 07:13:00;;;;;;;19.92;13.48;;;11.50;99.90;;;;;;5049467;28;20476;-76
2022/05/02 07:15:31;;;;;;;18.25;12.98;;;11.60;99.90;;;;;;5050607;28;20060;-76
2022/05/02 07:18:06;;;;;;;16.87;11.70;;;11.70;99.90;;;;;;5037972;28;20025;-77
2022/05/02 07:20:45;;;;;;;15.50;10.68;;;11.90;99.90;;;;;;5041180;28;20025;-77
2022/05/02 07:23:44;;;;;;;15.85;11.07;;;12.00;99.90;;;;;;5049757;28;20164;-77
2022/05/02 07:26:14;;;;;;;13.55;10.52;;;12.10;99.90;;;;;;5049212;28;20484;-76
2022/05/02 07:28:48;;;;;;;15.35;11.45;;;12.10;99.90;;;;;;5050735;28;20059;-74
2022/05/02 07:31:21;;;;;;;14.55;10.70;;;12.20;99.90;;;;;;5048971;28;20031;-74
2022/05/02 07:33:49;;;;;;;20.02;11.02;;;12.30;99.90;;;;;;5044687;28;20017;-74
2022/05/02 07:36:17;;;;;;;15.48;9.77;;;12.40;99.90;;;;;;5048699;28;20025;-75
2022/05/02 07:38:53;;;;;;;17.25;10.45;;;12.50;99.90;;;;;;5050006;28;20362;-75
2022/05/02 07:41:27;;;;;;;13.23;9.90;;;12.60;99.90;;;;;;5050850;28;20412;-74
2022/05/02 07:43:59;;;;;;;13.43;8.98;;;12.80;99.90;;;;;;5041220;28;20405;-75
2022/05/02 07:46:35;;;;;;;;;;;12.90;99.90;;;;;;5036676;28;20029;-74
2022/05/02 07:49:03;;;;;;;10.95;8.50;;;13.00;99.30;;;;;;5051313;28;19916;-75
2022/05/02 07:51:29;;;;;;;10.70;7.35;;;13.10;99.00;;;;;;5045805;28;20081;-75
2022/05/02 07:53:58;;;;;;;13.55;8.25;;;13.20;98.20;;;;;;5051098;28;20136;-75
2022/05/02 07:56:27;;;;;;;12.43;7.78;;;13.30;97.50;;;;;;5054851;28;20071;-75
2022/05/02 07:58:54;;;;;;;14.50;8.43;;;13.40;96.90;;;;;;5037307;28;20108;-75
2022/05/02 08:01:23;;;;;;;14.13;7.30;;;13.50;96.60;;;;;;5054401;28;20111;-76
2022/05/02 08:03:48;;;;;;;11.00;7.95;;;13.60;95.60;;;;;;5053427;28;20033;-77
2022/05/02 08:06:23;;;;;;;11.13;7.82;;;13.70;95.20;;;;;;5043016;28;20017;-76
2022/05/02 08:09:18;;;;;;;11.52;7.88;;;13.80;94.60;;;;;;5038056;28;20163;-76
2022/05/02 08:11:59;;;;;;;11.80;6.75;;;13.90;94.60;;;;;;5053674;28;20043;-76
2022/05/02 08:15:06;;;;;;;10.57;6.22;;;14.00;92.80;;;;;;5054875;28;20029;-76
2022/05/02 08:18:08;;;;;;;11.93;5.95;;;14.00;92.00;;;;;;5054470;28;20131;-76
2022/05/02 08:20:52;;;;;;;8.65;5.43;;;14.10;92.10;;;;;;5040265;28;20610;-76
2022/05/02 08:27:36;;;;;;;8.13;5.88;;;14.30;91.10;;;;;;5051757;28;20036;-76
2022/05/02 08:29:54;;;;;;;8.57;6.10;;;14.40;90.60;;;;;;5024965;28;20103;-76
2022/05/02 08:32:22;;;;;;;11.88;6.90;;;14.40;89.00;;;;;;5037071;28;20029;-76
2022/05/02 08:35:03;;;;;;;12.10;7.25;;;14.40;87.80;;;;;;5052119;28;20025;-77
2022/05/02 08:38:07;;;;;;;8.40;6.00;;;14.50;88.00;;;;;;5051152;28;20047;-76
2022/05/02 08:41:03;;;;;;;10.23;5.88;;;14.60;87.20;;;;;;5052455;28;20028;-75
2022/05/02 08:43:50;;;;;;;9.55;6.65;;;14.70;86.90;;;;;;5041043;28;20405;-75
2022/05/02 08:46:50;;;;;;;9.52;6.70;;;14.80;85.30;;;;;;5040728;28;20024;-75
2022/05/02 08:49:49;;;;;;;11.80;6.75;;;14.80;85.70;;;;;;5052885;28;20805;-75
2022/05/02 08:52:41;;;;;;;11.13;7.15;;;15.00;83.80;;;;;;5053698;28;20100;-75
2022/05/02 08:55:26;;;;;;;11.52;6.75;;;15.00;82.30;;;;;;5050530;28;20627;-75
2022/05/02 08:58:07;;;;;;;10.73;6.07;;;15.10;82.50;;;;;;5050077;28;20062;-75
2022/05/02 09:01:20;;;;;;;9.80;6.78;;;15.20;82.80;;;;;;5049660;28;20049;-76
2022/05/02 09:04:04;;;;;;;9.77;6.75;;;15.40;80.50;;;;;;5050825;28;20056;-75
2022/05/02 09:06:52;;;;;;;12.13;7.00;;;15.40;77.80;;;;;;5052737;28;20499;-75
2022/05/02 09:09:57;;;;;;;9.85;6.00;;;15.30;76.40;;;;;;5052766;28;20804;-76
2022/05/02 09:12:54;;;;;;;11.57;7.07;;;15.20;76.70;;;;;;5052279;28;20025;-76
2022/05/02 09:15:57;;;;;;;12.70;8.43;;;15.40;76.40;;;;;;5052807;28;20045;-75
2022/05/02 09:18:52;;;;;;;11.30;7.25;;;15.40;74.30;;;;;;5039679;28;20032;-75
2022/05/02 09:31:58;;;;;;;9.05;7.43;;;15.70;71.10;;;;;;5630860;23;20065;-90
2022/05/02 09:34:35;;;;;;;9.45;6.70;;;15.80;71.00;;;;;;4990833;28;20057;-87
2022/05/02 09:37:23;;;;;;;9.23;6.78;;;15.80;69.10;;;;;;4991924;28;20046;-86
2022/05/02 09:39:58;;;;;;;10.25;7.63;;;15.90;69.60;;;;;;4985667;28;20034;-85
2022/05/02 09:43:03;;;;;;;9.27;6.38;;;16.10;69.80;;;;;;4971123;28;20030;-86
2022/05/02 09:51:39;;;;;;;9.38;6.75;;;16.30;68.40;;;;;;4993138;28;20042;-86
2022/05/02 09:57:29;;;;;;;10.23;7.22;;;16.40;67.10;;;;;;4989427;28;20044;-87
2022/05/02 10:02:48;;;;;;;10.18;8.23;;;16.50;69.50;;;;;;4997734;28;20100;-86
2022/05/02 10:05:46;;;;;;;11.35;7.95;;;16.60;67.60;;;;;;4980036;28;20030;-85
2022/05/02 10:08:25;;;;;;;10.48;7.57;;;16.80;67.30;;;;;;4978410;28;20402;-86
2022/05/02 10:11:03;;;;;;;11.27;7.13;;;16.90;66.00;;;;;;4960410;28;20034;-87
2022/05/02 10:13:44;;;;;;;9.35;7.65;;;16.90;66.00;;;;;;4960550;28;20022;-86
2022/05/02 10:16:33;;;;;;;10.27;8.30;;;17.00;66.10;;;;;;4978101;28;20026;-87
2022/05/02 10:19:19;;;;;;;11.02;7.65;;;17.00;65.40;;;;;;4977641;28;20126;-86
2022/05/02 10:22:10;;;;;;;11.98;9.07;;;17.10;65.50;;;;;;4962023;28;20027;-87
2022/05/02 10:24:52;;;;;;;11.32;9.20;;;17.30;64.10;;;;;;4997129;28;20102;-87
2022/05/02 10:27:38;;;;;;;;;;;17.20;64.00;;;;;;4991099;28;20027;-87
2022/05/02 10:30:13;;;;;;;12.30;8.00;;;17.30;63.60;;;;;;4978830;28;19944;-86
2022/05/02 10:32:50;;;;;;;14.95;9.50;;;17.30;63.40;;;;;;4973587;28;20058;-86
2022/05/02 10:35:18;;;;;;;10.43;7.50;;;17.30;63.20;;;;;;4960602;28;20082;-87
2022/05/02 10:37:56;;;;;;;12.05;8.10;;;17.40;63.60;;;;;;4986558;28;20110;-87
2022/05/02 10:40:41;;;;;;;10.95;8.02;;;17.50;63.40;;;;;;4982476;28;20027;-86
2022/05/02 10:43:09;;;;;;;11.18;8.60;;;17.70;63.30;;;;;;4996278;28;20033;-86
2022/05/02 10:45:40;;;;;;;11.88;8.38;;;17.80;61.50;;;;;;4979201;28;20030;-87
2022/05/02 10:48:15;;;;;;;9.40;7.95;;;17.80;63.10;;;;;;4988926;28;20362;-86
2022/05/02 10:50:44;;;;;;;11.10;8.25;;;18.10;63.40;;;;;;4995452;28;20053;-86
2022/05/02 10:53:21;;;;;;;14.65;8.65;;;18.30;62.10;;;;;;4964287;28;20023;-86
2022/05/02 10:56:05;;;;;;;11.50;8.55;;;18.40;60.60;;;;;;4961382;28;20035;-87
2022/05/02 10:58:34;;;;;;;10.85;8.32;;;18.40;60.60;;;;;;4979436;28;20034;-87
2022/05/02 11:01:05;;;;;;;12.93;8.98;;;18.50;59.70;;;;;;4996246;28;20072;-87
2022/05/02 11:04:14;;;;;;;8.95;7.10;;;18.50;60.00;;;;;;4978430;28;20528;-86
2022/05/02 11:06:48;;;;;;;12.23;8.25;;;18.80;58.60;;;;;;4917191;29;20036;-87
2022/05/02 11:09:24;;;;;;;10.35;7.55;;;18.60;58.20;;;;;;4917337;29;20044;-86
2022/05/02 11:11:50;;;;;;;8.85;7.60;;;18.60;58.20;;;;;;4965988;28;20100;-86
2022/05/02 11:14:34;;;;;;;11.07;8.15;;;18.60;58.20;;;;;;4976059;28;20026;-87
2022/05/02 11:17:14;;;;;;;12.55;9.00;;;18.50;58.00;;;;;;4996891;28;20481;-86
2022/05/02 11:22:41;;;;;;;9.15;7.13;;;18.90;59.00;;;;;;4995689;28;20465;-87
2022/05/02 11:25:27;;;;;;;13.05;8.27;;;19.10;59.80;;;;;;4978105;28;20026;-88
2022/05/02 11:28:23;;;;;;;13.25;8.27;;;19.10;58.90;;;;;;4974798;28;20027;-87
2022/05/02 11:31:01;;;;;;;13.60;9.55;;;19.00;59.00;;;;;;4994459;28;20105;-86
2022/05/02 11:33:33;;;;;;;12.25;9.68;;;18.90;58.30;;;;;;4974864;28;20512;-87
2022/05/02 11:36:02;;;;;;;10.80;8.77;;;18.60;57.80;;;;;;4964537;28;20039;-86
2022/05/02 11:38:42;;;;;;;13.93;8.90;;;18.30;58.50;;;;;;4978069;28;20045;-86
2022/05/02 11:41:18;;;;;;;10.25;7.43;;;18.10;58.40;;;;;;4978263;28;20547;-86
2022/05/02 11:43:45;;;;;;;10.82;8.15;;;18.20;59.00;;;;;;4968412;28;20026;-87
2022/05/02 11:46:26;;;;;;;11.13;7.90;;;18.20;57.80;;;;;;4978176;28;20023;-86
2022/05/02 11:49:07;;;;;;;10.45;8.13;;;18.10;58.00;;;;;;4975224;28;20039;-85
2022/05/02 11:51:42;;;;;;;15.10;9.75;;;18.20;57.80;;;;;;4975322;28;20053;-85
2022/05/02 11:54:28;;;;;;;13.15;8.98;;;18.20;57.50;;;;;;4977646;28;20031;-85
2022/05/02 11:57:39;;;;;;;13.45;8.13;;;18.20;58.00;;;;;;4992449;28;20023;-85
2022/05/02 12:00:15;;;;;;;10.95;7.35;;;18.40;59.00;;;;;;4992808;28;20030;-85
2022/05/02 12:02:48;;;;;;;12.95;9.65;;;18.40;59.50;;;;;;4974214;28;20027;-85
2022/05/02 12:05:39;;;;;;;11.45;8.55;;;18.50;57.20;;;;;;4972060;28;20113;-85
2022/05/02 12:08:07;;;;;;;16.30;9.02;;;18.60;58.00;;;;;;4994332;28;20033;-84
2022/05/02 12:10:38;;;;;;;11.57;8.73;;;18.70;58.60;;;;;;4977368;28;20035;-85
2022/05/02 12:13:06;;;;;;;14.07;8.30;;;18.90;58.20;;;;;;4977376;28;20078;-85
2022/05/02 12:15:32;;;;;;;14.38;9.63;;;19.00;56.60;;;;;;4977753;28;20125;-85
2022/05/02 12:18:04;;;;;;;12.20;8.88;;;19.00;55.80;;;;;;4959704;28;20039;-85
2022/05/02 12:20:33;;;;;;;9.52;7.70;;;18.80;55.80;;;;;;4957787;28;20083;-84
2022/05/02 12:23:06;;;;;;;11.02;8.30;;;18.90;56.10;;;;;;4977594;28;20569;-84
2022/05/02 12:25:34;;;;;;;9.73;8.07;;;18.90;56.10;;;;;;4977959;28;20026;-85
2022/05/02 12:28:03;;;;;;;10.05;7.63;;;19.00;56.80;;;;;;4976990;28;20030;-84
2022/05/02 12:30:30;;;;;;;8.18;5.72;;;19.10;57.80;;;;;;4977948;28;20034;-84
2022/05/02 12:33:02;;;;;;;11.63;6.47;;;19.30;56.60;;;;;;4973656;28;20039;-85
2022/05/02 12:35:35;;;;;;;9.13;6.60;;;19.40;55.60;;;;;;4977582;28;20500;-85
2022/05/02 12:38:11;;;;;;;10.25;6.78;;;19.30;54.40;;;;;;4987223;28;20039;-85
2022/05/02 12:40:39;;;;;;;9.45;7.07;;;19.30;54.70;;;;;;4978292;28;20533;-84
2022/05/02 12:43:10;;;;;;;8.95;6.40;;;19.30;54.40;;;;;;4976861;28;20034;-84
2022/05/02 12:45:46;;;;;;;8.80;5.93;;;19.30;54.70;;;;;;4975602;28;20034;-85
2022/05/02 12:48:34;;;;;;;8.70;6.90;;;19.30;54.50;;;;;;4968270;28;20031;-85
2022/05/02 12:51:00;;;;;;;9.60;6.25;;;19.30;53.60;;;;;;4972740;28;20027;-85
2022/05/02 12:56:11;;;;;;;8.88;5.85;;;19.40;53.70;;;;;;4978124;28;20158;-85
2022/05/02 13:01:25;;;;;;;7.95;5.82;;;19.20;53.00;;;;;;4972206;28;20086;-85
2022/05/02 13:04:00;;;;;;;9.95;6.80;;;19.20;53.90;;;;;;4972665;28;20033;-85
2022/05/02 13:06:27;;;;;;;11.23;6.50;;;19.30;53.80;;;;;;4977530;28;20113;-85
2022/05/02 13:09:12;;;;;;;9.63;6.70;;;19.40;53.60;;;;;;4960984;28;20162;-85
2022/05/02 13:11:38;;;;;;;7.28;6.00;;;19.60;53.40;;;;;;4968631;28;20034;-85
2022/05/02 13:14:04;;;;;;;9.55;6.28;;;19.70;53.80;;;;;;4976837;28;20026;-84
2022/05/02 13:16:40;;;;;;;6.88;5.68;;;19.80;54.30;;;;;;4977574;28;20421;-85
2022/05/02 13:19:07;;;;;;;10.32;6.35;;;20.00;53.60;;;;;;4976461;28;20031;-84
2022/05/02 13:21:33;;;;;;;10.45;6.80;;;20.20;53.30;;;;;;4981642;28;20022;-85
2022/05/02 13:24:12;;;;;;;9.45;6.82;;;20.30;51.90;;;;;;4977060;28;20046;-85
2022/05/02 13:26:52;;;;;;;7.45;6.50;;;20.40;52.30;;;;;;4977585;28;20113;-85
2022/05/02 13:29:29;;;;;;;6.95;6.03;;;20.60;52.50;;;;;;4976330;28;20125;-85
2022/05/02 13:32:02;;;;;;;6.45;5.55;;;20.70;52.40;;;;;;4976017;28;20042;-85
2022/05/02 13:35:05;;;;;;;6.80;5.53;;;20.80;52.50;;;;;;4975996;28;20734;-85
2022/05/02 13:37:56;;;;;;;8.77;6.15;;;20.70;51.80;;;;;;4952566;28;20031;-85
2022/05/02 13:40:31;;;;;;;8.85;4.93;;;20.60;51.20;;;;;;4976902;28;20031;-84
2022/05/02 13:43:18;;;;;;;9.30;6.05;;;20.50;52.10;;;;;;4976655;28;20177;-85
2022/05/02 13:45:54;;;;;;;12.40;5.70;;;20.40;51.70;;;;;;4963656;28;20035;-86
2022/05/02 13:48:48;;;;;;;7.97;4.93;;;20.30;52.20;;;;;;4977145;28;20034;-86
2022/05/02 13:51:32;;;;;;;5.88;4.78;;;20.30;52.80;;;;;;4976156;28;20372;-86
2022/05/02 13:54:03;;;;;;;8.38;5.40;;;20.50;52.40;;;;;;4973279;28;20038;-87
2022/05/02 13:56:44;;;;;;;7.80;6.07;;;20.60;51.80;;;;;;4977131;28;20030;-86
2022/05/02 13:59:26;;;;;;;9.60;5.90;;;20.70;52.00;;;;;;4985257;28;20037;-87